createdAt,value
2023-05-02T00:00:49.825Z,12.68
2023-05-02T00:03:17.299Z,12.80
2023-05-02T00:05:44.605Z,15.18
2023-05-02T00:08:12.040Z,16.02
2023-05-02T00:10:38.620Z,15.95
2023-05-02T00:13:05.111Z,16.33
2023-05-02T00:15:31.529Z,17.55
2023-05-02T00:17:58.081Z,15.90
2023-05-02T00:20:24.699Z,15.43
2023-05-02T00:22:51.148Z,16.88
2023-05-02T00:25:17.670Z,13.57
2023-05-02T00:27:46.598Z,17.25
2023-05-02T00:30:14.071Z,15.45
2023-05-02T00:32:40.726Z,12.77
2023-05-02T00:35:08.101Z,15.30
2023-05-02T00:37:34.718Z,16.90
2023-05-02T00:40:02.017Z,17.30
2023-05-02T00:42:31.731Z,14.85
2023-05-02T00:44:58.320Z,15.07
2023-05-02T00:47:24.946Z,14.95
2023-05-02T00:49:51.541Z,13.82
2023-05-02T00:52:18.662Z,14.95
2023-05-02T00:54:45.524Z,14.02
2023-05-02T00:57:11.954Z,15.90
2023-05-02T00:59:39.062Z,16.83
2023-05-02T01:02:31.932Z,14.40
2023-05-02T01:05:20.085Z,17.13
2023-05-02T01:08:05.447Z,14.18
2023-05-02T01:10:47.646Z,14.10
2023-05-02T01:13:20.796Z,14.00
2023-05-02T01:15:51.575Z,11.50
2023-05-02T01:18:22.412Z,12.88
2023-05-02T01:20:57.295Z,12.60
2023-05-02T01:23:32.782Z,12.77
2023-05-02T01:26:23.632Z,15.07
2023-05-02T01:28:59.492Z,14.52
2023-05-02T01:31:28.975Z,13.38
2023-05-02T01:33:57.417Z,12.80
2023-05-02T01:36:27.047Z,13.25
2023-05-02T01:38:55.772Z,13.75
2023-05-02T01:41:26.330Z,11.77
2023-05-02T01:43:56.714Z,12.93
2023-05-02T01:46:25.365Z,12.70
2023-05-02T01:48:52.994Z,12.38
2023-05-02T01:51:21.445Z,15.25
2023-05-02T01:53:50.340Z,14.93
2023-05-02T01:56:19.565Z,16.92
2023-05-02T01:58:47.598Z,13.73
2023-05-02T02:01:15.516Z,13.38
2023-05-02T02:03:43.399Z,13.80
2023-05-02T02:06:11.258Z,13.38
2023-05-02T02:08:38.605Z,14.32
2023-05-02T02:11:10.686Z,12.23
2023-05-02T02:13:41.986Z,13.23
2023-05-02T02:18:39.339Z,13.68
2023-05-02T02:21:11.248Z,14.93
2023-05-02T02:23:39.753Z,12.80
2023-05-02T02:26:07.974Z,13.13
2023-05-02T02:28:34.617Z,13.32
2023-05-02T02:31:01.401Z,14.18
2023-05-02T02:33:31.661Z,11.60
2023-05-02T02:36:13.419Z,12.70
2023-05-02T02:41:21.017Z,12.13
2023-05-02T02:44:19.147Z,13.55
2023-05-02T02:47:05.857Z,14.90
2023-05-02T02:49:50.867Z,13.27
2023-05-02T02:52:50.447Z,13.20
2023-05-02T02:55:37.352Z,12.70
2023-05-02T02:58:25.629Z,12.27
2023-05-02T03:00:53.130Z,12.48
2023-05-02T03:03:22.577Z,14.85
2023-05-02T03:05:51.678Z,14.35
2023-05-02T03:08:18.206Z,13.25
2023-05-02T03:10:44.674Z,14.55
2023-05-02T03:13:11.164Z,16.13
2023-05-02T03:15:51.439Z,13.68
2023-05-02T03:18:22.288Z,16.85
2023-05-02T03:20:48.710Z,15.18
2023-05-02T03:23:15.208Z,14.32
2023-05-02T03:25:41.963Z,12.10
2023-05-02T03:28:11.673Z,15.27
2023-05-02T03:30:40.761Z,15.35
2023-05-02T03:33:08.943Z,13.18
2023-05-02T03:35:36.997Z,12.52
2023-05-02T03:38:03.431Z,15.68
2023-05-02T03:40:29.923Z,15.18
2023-05-02T03:42:57.335Z,13.85
2023-05-02T03:45:29.622Z,14.35
2023-05-02T03:47:56.386Z,14.93
2023-05-02T03:50:23.654Z,17.85
2023-05-02T03:52:51.961Z,18.70
2023-05-02T03:55:25.112Z,16.92
2023-05-02T03:57:52.038Z,15.73
2023-05-02T04:00:18.617Z,15.82
2023-05-02T04:02:52.113Z,14.68
2023-05-02T04:05:22.110Z,15.32
2023-05-02T04:07:49.826Z,17.92
2023-05-02T04:10:18.020Z,22.92
2023-05-02T04:12:51.100Z,29.05
2023-05-02T04:15:18.759Z,25.58
2023-05-02T04:17:47.083Z,22.33
2023-05-02T04:20:15.727Z,21.05
2023-05-02T04:22:48.076Z,20.63
2023-05-02T04:25:15.231Z,20.02
2023-05-02T04:27:42.689Z,21.25
2023-05-02T04:30:12.508Z,18.15
2023-05-02T04:32:41.328Z,19.60
2023-05-02T04:35:10.044Z,23.20
2023-05-02T04:37:38.123Z,21.15
2023-05-02T04:40:06.191Z,20.02
2023-05-02T04:42:32.771Z,19.27
2023-05-02T04:45:09.308Z,19.40
2023-05-02T04:47:36.276Z,20.17
2023-05-02T04:50:02.931Z,19.63
2023-05-02T04:52:30.538Z,23.60
2023-05-02T04:54:57.375Z,23.15
2023-05-02T04:57:24.591Z,20.23
2023-05-02T04:59:55.121Z,20.37
2023-05-02T05:02:21.702Z,23.35
2023-05-02T05:04:48.236Z,20.70
2023-05-02T05:07:16.207Z,18.90
2023-05-02T05:09:46.436Z,20.02
2023-05-02T05:12:13.756Z,19.90
2023-05-02T05:14:40.379Z,22.08
2023-05-02T05:17:07.581Z,18.67
2023-05-02T05:19:34.668Z,20.17
2023-05-02T05:22:01.732Z,21.05
2023-05-02T05:24:28.215Z,23.00
2023-05-02T05:26:57.159Z,21.88
2023-05-02T05:29:23.800Z,24.40
2023-05-02T05:31:50.374Z,28.48
2023-05-02T05:34:19.497Z,25.20
2023-05-02T05:36:47.109Z,26.70
2023-05-02T05:39:13.825Z,29.00
2023-05-02T05:41:43.197Z,25.08
2023-05-02T05:44:11.325Z,27.55
2023-05-02T05:46:38.316Z,26.08
2023-05-02T05:49:06.383Z,28.38
2023-05-02T05:51:33.713Z,23.65
2023-05-02T05:54:00.710Z,27.75
2023-05-02T05:56:28.070Z,26.00
2023-05-02T05:59:00.712Z,26.67
2023-05-02T06:01:27.127Z,25.13
2023-05-02T06:03:54.407Z,26.88
2023-05-02T06:06:21.135Z,29.92
2023-05-02T06:08:47.618Z,27.27
2023-05-02T06:11:14.428Z,24.27
2023-05-02T06:13:40.897Z,23.15
2023-05-02T06:16:08.233Z,24.65
2023-05-02T06:18:35.118Z,29.70
2023-05-02T06:21:05.682Z,26.38
2023-05-02T06:23:33.350Z,25.52
2023-05-02T06:26:01.278Z,29.48
2023-05-02T06:28:28.230Z,24.52
2023-05-02T06:31:05.892Z,24.15
2023-05-02T06:33:33.731Z,26.80
2023-05-02T06:36:01.695Z,22.88
2023-05-02T06:38:28.702Z,23.95
2023-05-02T06:40:55.118Z,22.52
2023-05-02T06:43:21.580Z,21.13
2023-05-02T06:45:48.035Z,22.08
2023-05-02T06:48:15.190Z,23.60
2023-05-02T06:50:41.659Z,21.88
2023-05-02T06:53:08.053Z,21.58
2023-05-02T06:55:34.538Z,23.25
2023-05-02T06:58:01.001Z,23.15
2023-05-02T07:00:27.503Z,29.17
2023-05-02T07:02:53.976Z,22.73
2023-05-02T07:05:20.478Z,21.35
2023-05-02T07:07:46.945Z,20.25
2023-05-02T07:10:13.513Z,22.92
2023-05-02T07:12:39.919Z,22.52
2023-05-02T07:15:07.030Z,22.00
2023-05-02T07:17:33.807Z,23.15
2023-05-02T07:20:00.772Z,30.95
2023-05-02T07:22:27.553Z,25.75
2023-05-02T07:25:02.239Z,25.75
2023-05-02T07:27:28.757Z,25.02
2023-05-02T07:29:55.201Z,24.60
2023-05-02T07:32:22.373Z,26.00
2023-05-02T07:34:48.988Z,26.67
2023-05-02T07:37:15.452Z,25.02
2023-05-02T07:39:41.912Z,27.30
2023-05-02T07:42:08.372Z,28.20
2023-05-02T07:44:35.985Z,29.65
2023-05-02T07:47:02.716Z,27.40
2023-05-02T07:49:29.354Z,32.25
2023-05-02T07:51:56.168Z,30.33
2023-05-02T07:54:22.964Z,23.90
2023-05-02T07:56:49.372Z,25.83
2023-05-02T07:59:15.908Z,28.08
2023-05-02T08:01:42.932Z,25.58
2023-05-02T08:04:11.632Z,26.55
2023-05-02T08:06:38.547Z,45.45
2023-05-02T08:09:05.034Z,25.48
2023-05-02T08:11:31.515Z,26.70
2023-05-02T08:13:57.950Z,24.92
2023-05-02T08:16:24.523Z,26.08
2023-05-02T08:18:50.975Z,25.63
2023-05-02T08:21:17.442Z,26.73
2023-05-02T08:23:45.201Z,24.30
2023-05-02T08:26:11.658Z,24.20
2023-05-02T08:28:38.077Z,25.55
2023-05-02T08:31:04.496Z,23.75
2023-05-02T08:33:31.022Z,25.75
2023-05-02T08:35:57.450Z,22.90
2023-05-02T08:38:23.868Z,21.02
2023-05-02T08:40:50.482Z,25.50
2023-05-02T08:43:18.002Z,23.52
2023-05-02T08:45:45.492Z,23.02
2023-05-02T08:48:13.797Z,22.98
2023-05-02T08:50:42.521Z,22.13
2023-05-02T08:53:10.852Z,22.33
2023-05-02T08:55:42.283Z,20.90
2023-05-02T08:58:10.710Z,21.98
2023-05-02T09:00:41.714Z,23.17
2023-05-02T09:03:26.967Z,26.45
2023-05-02T09:05:59.129Z,19.10
2023-05-02T09:08:25.656Z,20.67
2023-05-02T09:10:52.321Z,21.40
2023-05-02T09:13:36.045Z,21.88
2023-05-02T09:16:16.706Z,19.83
2023-05-02T09:18:45.633Z,17.33
2023-05-02T09:21:19.688Z,16.38
2023-05-02T09:23:49.531Z,18.13
2023-05-02T09:26:19.978Z,16.50
2023-05-02T09:28:48.800Z,16.65
2023-05-02T09:31:26.930Z,19.42
2023-05-02T09:34:08.655Z,19.63
2023-05-02T09:36:41.061Z,16.20
2023-05-02T09:39:16.290Z,15.65
2023-05-02T09:41:43.966Z,16.80
2023-05-02T09:44:12.516Z,20.95
2023-05-02T09:46:43.997Z,17.23
2023-05-02T09:49:10.788Z,16.88
2023-05-02T09:51:37.507Z,17.33
2023-05-02T09:54:04.479Z,16.25
2023-05-02T09:56:31.011Z,15.38
2023-05-02T09:59:16.466Z,17.02
2023-05-02T10:01:43.616Z,16.67
2023-05-02T10:04:18.725Z,18.05
2023-05-02T10:06:46.209Z,14.18
2023-05-02T10:09:19.684Z,17.95
2023-05-02T10:11:53.062Z,16.80
2023-05-02T10:14:22.486Z,16.27
2023-05-02T10:17:05.727Z,16.85
2023-05-02T10:19:54.656Z,16.67
2023-05-02T10:22:23.022Z,17.20
2023-05-02T10:24:50.428Z,17.70
2023-05-02T10:27:17.170Z,19.13
2023-05-02T10:29:44.176Z,18.08
2023-05-02T10:32:11.135Z,14.77
2023-05-02T10:34:39.036Z,17.45
2023-05-02T10:37:05.504Z,15.07
2023-05-02T10:39:32.590Z,17.52
2023-05-02T10:42:02.165Z,19.00
2023-05-02T10:44:36.330Z,21.80
2023-05-02T10:47:25.299Z,12.70
2023-05-02T10:50:02.404Z,12.57
2023-05-02T10:52:32.737Z,14.75
2023-05-02T10:55:21.938Z,13.50
2023-05-02T10:57:57.443Z,15.73
2023-05-02T11:00:34.103Z,14.55
2023-05-02T11:03:01.939Z,13.15
2023-05-02T11:05:28.864Z,15.10
2023-05-02T11:08:19.325Z,13.68
2023-05-02T11:10:47.268Z,12.30
2023-05-02T11:13:13.854Z,14.93
2023-05-02T11:15:40.291Z,11.85
2023-05-02T11:18:13.986Z,12.52
2023-05-02T11:20:45.462Z,13.38
2023-05-02T11:23:15.393Z,16.63
2023-05-02T11:26:03.365Z,15.25
2023-05-02T11:28:48.381Z,12.07
2023-05-02T11:31:27.251Z,10.88
2023-05-02T11:34:01.346Z,12.95
2023-05-02T11:36:33.412Z,10.15
2023-05-02T11:39:01.462Z,11.02
2023-05-02T11:41:43.396Z,15.18
2023-05-02T11:44:10.299Z,12.43
2023-05-02T11:46:37.365Z,12.48
2023-05-02T11:49:06.174Z,11.57
2023-05-02T11:51:33.753Z,12.38
2023-05-02T11:54:00.364Z,10.70
2023-05-02T11:56:27.422Z,12.98
2023-05-02T11:59:01.231Z,15.57
2023-05-02T12:01:27.953Z,12.70
2023-05-02T12:04:08.248Z,9.80
2023-05-02T12:06:35.316Z,12.52
2023-05-02T12:09:17.846Z,20.58
2023-05-02T12:11:44.779Z,10.90
2023-05-02T12:14:11.269Z,12.63
2023-05-02T12:16:37.911Z,11.10
2023-05-02T12:19:04.786Z,14.23
2023-05-02T12:21:33.094Z,11.52
2023-05-02T12:24:01.150Z,11.13
2023-05-02T12:26:30.818Z,13.25
2023-05-02T12:28:58.921Z,12.27
2023-05-02T12:31:26.669Z,13.38
2023-05-02T12:33:57.216Z,19.73
2023-05-02T12:36:24.206Z,13.48
2023-05-02T12:38:52.932Z,13.35
2023-05-02T12:41:31.406Z,14.85
2023-05-02T12:44:00.572Z,12.10
2023-05-02T12:46:28.332Z,7.43
2023-05-02T12:49:11.917Z,13.85
2023-05-02T12:51:39.792Z,6.03
2023-05-02T12:54:07.039Z,5.32
2023-05-02T12:56:40.605Z,7.30
2023-05-02T12:59:07.976Z,5.85
2023-05-02T13:01:34.804Z,6.28
2023-05-02T13:04:01.511Z,3.20
2023-05-02T13:06:28.011Z,3.35
2023-05-02T13:08:54.502Z,3.13
2023-05-02T13:11:21.011Z,3.95
2023-05-02T13:13:47.534Z,2.95
2023-05-02T13:16:14.120Z,3.67
2023-05-02T13:18:40.787Z,3.33
2023-05-02T13:21:07.569Z,2.50
2023-05-02T13:23:34.073Z,4.07
2023-05-02T13:26:00.495Z,2.47
2023-05-02T13:28:27.038Z,2.40
2023-05-02T13:30:53.551Z,2.10
2023-05-02T13:33:19.991Z,3.53
2023-05-02T13:35:46.615Z,3.15
2023-05-02T13:38:13.126Z,3.58
2023-05-02T13:40:39.681Z,4.03
2023-05-02T13:43:06.232Z,4.35
2023-05-02T13:45:32.983Z,5.18
2023-05-02T13:47:59.470Z,7.85
2023-05-02T13:50:25.988Z,6.28
2023-05-02T13:52:52.433Z,8.88
2023-05-02T13:55:19.690Z,12.80
2023-05-02T13:57:46.409Z,11.45
2023-05-02T14:00:13.548Z,9.25
2023-05-02T14:02:40.144Z,8.55
2023-05-02T14:05:07.325Z,10.45
2023-05-02T14:07:33.786Z,8.30
2023-05-02T14:10:00.658Z,8.00
2023-05-02T14:12:27.449Z,6.60
2023-05-02T14:14:53.876Z,6.10
2023-05-02T14:17:21.310Z,6.30
2023-05-02T14:19:47.832Z,5.82
2023-05-02T14:22:14.313Z,9.10
2023-05-02T14:24:41.046Z,11.63
2023-05-02T14:27:12.804Z,15.35
2023-05-02T14:29:40.033Z,11.68
2023-05-02T14:32:07.235Z,9.88
2023-05-02T14:34:33.798Z,10.55
2023-05-02T14:37:00.321Z,14.10
2023-05-02T14:39:27.633Z,11.73
2023-05-02T14:41:54.188Z,13.40
2023-05-02T14:44:20.747Z,15.73
2023-05-02T14:46:47.297Z,14.60
2023-05-02T14:49:13.724Z,13.55
2023-05-02T14:51:40.292Z,14.85
2023-05-02T14:54:07.159Z,10.98
2023-05-02T14:56:33.717Z,11.18
2023-05-02T14:59:00.359Z,11.80
2023-05-02T15:01:26.901Z,11.80
2023-05-02T15:04:06.055Z,13.07
2023-05-02T15:06:35.626Z,12.77
2023-05-02T15:09:02.788Z,13.18
2023-05-02T15:11:29.209Z,14.68
2023-05-02T15:13:57.555Z,14.27
2023-05-02T15:16:26.977Z,12.57
2023-05-02T15:18:53.849Z,11.15
2023-05-02T15:21:20.497Z,11.63
2023-05-02T15:23:47.433Z,11.20
2023-05-02T15:26:14.145Z,9.40
2023-05-02T15:28:40.872Z,9.88
2023-05-02T15:31:07.370Z,10.38
2023-05-02T15:33:33.851Z,13.13
2023-05-02T15:36:00.570Z,12.30
2023-05-02T15:38:27.876Z,9.23
2023-05-02T15:40:58.733Z,11.68
2023-05-02T15:43:26.137Z,13.35
2023-05-02T15:45:57.401Z,9.90
2023-05-02T15:48:27.577Z,11.98
2023-05-02T15:50:54.001Z,10.10
2023-05-02T15:53:22.936Z,9.00
2023-05-02T15:55:52.636Z,8.73
2023-05-02T15:58:19.715Z,10.35
2023-05-02T16:00:51.783Z,7.85
2023-05-02T16:03:18.463Z,10.73
2023-05-02T16:05:44.946Z,9.05
2023-05-02T16:08:11.416Z,9.40
2023-05-02T16:10:40.204Z,8.00
2023-05-02T16:13:06.658Z,9.90
2023-05-02T16:15:33.266Z,10.85
2023-05-02T16:17:59.909Z,10.48
2023-05-02T16:20:27.679Z,8.35
2023-05-02T16:22:54.430Z,8.88
2023-05-02T16:25:21.144Z,8.25
2023-05-02T16:27:47.592Z,8.10
2023-05-02T16:30:15.704Z,9.27
2023-05-02T16:32:42.284Z,7.20
2023-05-02T16:35:12.300Z,8.25
2023-05-02T16:37:40.911Z,8.63
2023-05-02T16:40:11.118Z,9.02
2023-05-02T16:42:38.267Z,8.43
2023-05-02T16:45:05.071Z,7.75
2023-05-02T16:47:31.984Z,5.90
2023-05-02T16:49:59.472Z,7.10
2023-05-02T16:52:27.786Z,9.45
2023-05-02T16:54:54.872Z,8.23
2023-05-02T16:57:21.502Z,8.55
2023-05-02T16:59:50.646Z,7.10
2023-05-02T17:02:19.222Z,7.35
2023-05-02T17:04:45.977Z,8.75
2023-05-02T17:07:12.543Z,9.93
2023-05-02T17:09:41.335Z,13.55
2023-05-02T17:12:11.474Z,9.88
2023-05-02T17:14:40.377Z,10.80
2023-05-02T17:17:06.900Z,10.32
2023-05-02T17:19:33.411Z,10.70
2023-05-02T17:22:01.390Z,14.73
2023-05-02T17:24:29.939Z,10.38
2023-05-02T17:26:56.896Z,13.88
2023-05-02T17:29:23.370Z,14.38
2023-05-02T17:31:49.821Z,12.27
2023-05-02T17:34:16.335Z,11.98
2023-05-02T17:36:43.561Z,14.02
2023-05-02T17:39:11.495Z,12.00
2023-05-02T17:41:38.127Z,13.57
2023-05-02T17:44:07.288Z,16.85
2023-05-02T17:46:33.832Z,15.55
2023-05-02T17:49:00.971Z,15.93
2023-05-02T17:51:27.916Z,13.60
2023-05-02T17:53:54.506Z,14.30
2023-05-02T17:56:21.024Z,12.48
2023-05-02T17:58:47.458Z,13.15
2023-05-02T18:01:14.339Z,14.60
2023-05-02T18:03:41.723Z,11.50
2023-05-02T18:06:08.575Z,10.50
2023-05-02T18:08:35.181Z,9.07
2023-05-02T18:11:03.226Z,10.25
2023-05-02T18:13:29.785Z,10.35
2023-05-02T18:15:57.326Z,13.68
2023-05-02T18:18:23.999Z,9.25
2023-05-02T18:20:50.580Z,8.90
2023-05-02T18:23:17.065Z,12.10
2023-05-02T18:25:44.116Z,12.75
2023-05-02T18:28:10.657Z,11.10
2023-05-02T18:30:37.908Z,10.60
2023-05-02T18:33:06.314Z,9.02
2023-05-02T18:35:33.286Z,10.77
2023-05-02T18:37:59.716Z,12.63
2023-05-02T18:40:26.132Z,11.48
2023-05-02T18:42:52.594Z,12.52
2023-05-02T18:45:19.121Z,12.93
2023-05-02T18:47:45.531Z,13.55
2023-05-02T18:50:11.986Z,15.35
2023-05-02T18:52:38.474Z,13.98
2023-05-02T18:55:06.105Z,11.80
2023-05-02T18:57:33.816Z,14.05
2023-05-02T19:00:00.944Z,15.70
2023-05-02T19:02:27.655Z,29.83
2023-05-02T19:04:54.401Z,13.82
2023-05-02T19:07:20.818Z,14.48
2023-05-02T19:09:47.261Z,11.93
2023-05-02T19:12:13.682Z,13.70
2023-05-02T19:14:40.274Z,15.30
2023-05-02T19:17:06.857Z,16.05
2023-05-02T19:19:33.289Z,24.33
2023-05-02T19:21:59.697Z,20.00
2023-05-02T19:24:26.354Z,14.52
2023-05-02T19:26:53.248Z,13.77
2023-05-02T19:29:19.670Z,14.23
2023-05-02T19:31:46.335Z,13.57
2023-05-02T19:34:12.962Z,13.65
2023-05-02T19:36:39.446Z,15.60
2023-05-02T19:39:06.292Z,12.57
2023-05-02T19:41:32.830Z,12.55
2023-05-02T19:43:59.928Z,16.83
2023-05-02T19:46:26.904Z,14.98
2023-05-02T19:48:53.470Z,16.92
2023-05-02T19:51:25.681Z,15.43
2023-05-02T19:53:58.459Z,18.33
2023-05-02T19:56:28.710Z,18.70
2023-05-02T19:58:58.548Z,20.02
2023-05-02T20:01:28.221Z,17.52
2023-05-02T20:03:55.090Z,14.80
2023-05-02T20:06:21.708Z,16.05
2023-05-02T20:08:48.151Z,14.63
2023-05-02T20:11:14.589Z,18.77
2023-05-02T20:13:41.025Z,16.55
2023-05-02T20:16:07.591Z,19.77
2023-05-02T20:18:34.124Z,17.77
2023-05-02T20:21:00.562Z,16.27
2023-05-02T20:23:27.012Z,19.45
2023-05-02T20:25:53.406Z,16.55
2023-05-02T20:28:19.875Z,16.27
2023-05-02T20:30:46.398Z,16.23
2023-05-02T20:33:16.029Z,18.23
2023-05-02T20:35:44.456Z,17.75
2023-05-02T20:38:11.121Z,21.02
2023-05-02T20:40:39.652Z,16.90
2023-05-02T20:43:06.503Z,17.35
2023-05-02T20:45:33.385Z,13.73
2023-05-02T20:47:59.878Z,14.07
2023-05-02T20:50:27.139Z,16.27
2023-05-02T20:52:54.276Z,14.55
2023-05-02T20:55:22.641Z,15.50
2023-05-02T20:57:53.017Z,16.48
2023-05-02T21:00:22.335Z,18.20
2023-05-02T21:02:49.022Z,17.08
2023-05-02T21:05:15.714Z,17.73
2023-05-02T21:07:42.151Z,15.00
2023-05-02T21:10:09.319Z,17.90
2023-05-02T21:12:35.771Z,17.58
2023-05-02T21:15:02.412Z,19.25
2023-05-02T21:17:28.944Z,18.27
2023-05-02T21:19:58.329Z,16.60
2023-05-02T21:22:24.789Z,17.13
2023-05-02T21:24:51.314Z,15.25
2023-05-02T21:27:17.754Z,16.45
2023-05-02T21:29:44.226Z,16.73
2023-05-02T21:32:10.767Z,14.13
2023-05-02T21:34:37.361Z,15.43
2023-05-02T21:37:04.066Z,17.17
2023-05-02T21:39:30.556Z,14.95
2023-05-02T21:41:57.008Z,14.45
2023-05-02T21:44:23.417Z,16.73
2023-05-02T21:46:50.712Z,14.80
2023-05-02T21:49:17.212Z,16.45
2023-05-02T21:51:43.652Z,14.68
2023-05-02T21:54:10.195Z,15.27
2023-05-02T21:56:36.664Z,16.42
2023-05-02T21:59:03.420Z,11.63
2023-05-02T22:01:30.006Z,11.13
2023-05-02T22:03:57.937Z,11.70
2023-05-02T22:06:24.787Z,10.23
2023-05-02T22:08:51.485Z,10.35
2023-05-02T22:11:18.045Z,9.55
2023-05-02T22:13:44.543Z,11.15
2023-05-02T22:16:11.032Z,14.50
2023-05-02T22:18:37.662Z,10.13
2023-05-02T22:21:04.125Z,11.00
2023-05-02T22:23:31.127Z,9.80
2023-05-02T22:25:57.701Z,8.32
2023-05-02T22:28:24.420Z,10.48
2023-05-02T22:30:50.936Z,9.27
2023-05-02T22:33:17.439Z,8.80
2023-05-02T22:35:43.845Z,9.48
2023-05-02T22:38:15.038Z,11.48
2023-05-02T22:43:08.308Z,10.02
2023-05-02T22:45:36.416Z,10.35
2023-05-02T22:48:03.066Z,12.02
2023-05-02T22:50:30.182Z,10.82
2023-05-02T22:52:57.118Z,11.30
2023-05-02T22:55:24.324Z,10.85
2023-05-02T22:57:50.951Z,10.77
2023-05-02T23:00:17.601Z,12.95
2023-05-02T23:02:44.502Z,12.10
2023-05-02T23:05:11.029Z,9.00
2023-05-02T23:07:37.766Z,10.77
2023-05-02T23:10:04.828Z,10.93
2023-05-02T23:12:31.477Z,10.50
2023-05-02T23:14:58.048Z,12.20
2023-05-02T23:17:24.553Z,11.48
2023-05-02T23:19:51.040Z,12.80
2023-05-02T23:22:17.495Z,15.50
2023-05-02T23:24:47.307Z,10.45
2023-05-02T23:27:13.734Z,11.55
2023-05-02T23:29:40.198Z,10.75
2023-05-02T23:32:08.042Z,9.63
2023-05-02T23:34:36.505Z,11.95
2023-05-02T23:37:05.645Z,11.80
2023-05-02T23:39:32.654Z,11.68
2023-05-02T23:42:00.622Z,11.65
2023-05-02T23:44:27.076Z,12.95
2023-05-02T23:46:53.601Z,16.08
2023-05-02T23:49:20.489Z,10.57
2023-05-02T23:51:47.163Z,10.75
2023-05-02T23:54:13.617Z,12.07
2023-05-02T23:56:40.022Z,11.05
2023-05-02T23:59:06.492Z,12.50
